広島 の空港の天気 - METARとTAF

広島空港 ( RJOA / HIJ ) - 広島県三原市
飛行場実況気象(Metar)
観測時間04/24 21:00 JST (04/24 12:00 UTC)
風向・風速北 5m/s
視程1600m
天気現象強いしゅう雨 散在した霧 もや
少しの雲 雲底高度 不明
全天の4割程度の雲 雲底高度 210m
全天の8割程度の雲 雲底高度 300m
気温17℃
湿度94%
気圧1004hPa
METARRJOA 241200Z 01009KT 340V040 1600 +SHRA BCFG BR FEW000 SCT007 BKN010 17/16 Q1004
過去の天気等 Google飛行場航空写真 Wunderground天気予報

過去48時間のMETAR

飛行場予報(TAF)
発表時間: 4/24 20:14 JST (4/24 11:14 UTC)
予報対象時間: 24日21時 JST ~ 26日3時 JST
風向・風速西南西 3m/s
視程3,000m
天気現象弱いしゅう雨 もや 散在した霧
少しの雲 雲底高度 0m
全天の4割程度の雲 雲底高度 180m
全天の8割程度の雲 雲底高度 460m
24日21時 JST ~ 24日23時 JST に徐々に
風向・風速北西 5m/s
24日21時 JST ~ 24日23時 JST に一時的に
視程1,500m
天気現象強いしゅう雨 もや 散在した霧
少しの雲 雲底高度 0m
全天の4割程度の雲 雲底高度 60m
全天の8割程度の雲 雲底高度 150m
少しの積乱雲 雲底高度 460m
24日23時 JST ~ 25日1時 JST に徐々に
視程8,000m
天気現象弱いしゅう雨
TAF RJOA 241114Z 2412/2518 24006KT 3000 -SHRA BR BCFG FEW000 SCT006 BKN015
BECMG 2412/2414 32010KT
TEMPO 2412/2414 1500 +SHRA BR BCFG FEW000 SCT002 BKN005 FEW015CB
BECMG 2414/2416 8000 -SHRA
日本の空港のMETAR・TAFへのリンク

RJTT 東京国際空港
RJAA 新東京国際空港
RJBB 関西国際空港
RJOO 大阪空港
RJGG 中部国際空港
RJCC 新千歳空港
RJFF 福岡空港
ROAH 那覇空港


RJEC 旭川空港
RJCH 函館空港
RJCK 釧路空港
RJCM 女満別空港
RJCB 帯広空港
RJSA 青森空港
RJSS 仙台空港
RJSK 秋田空港
RJSF 福島空港
RJAH 茨城空港
RJSN 新潟空港
RJNT 富山空港
RJNK 小松飛行場
RJNS 静岡空港
RJOH 美保飛行場
RJOC 出雲空港
RJOB 岡山空港
RJOA 広島空港
RJOI 岩国飛行場
RJOT 高松空港
RJOM 松山空港
RJOK 高知空港
RJFR 北九州空港
RJFT 熊本空港
RJFU 長崎空港
RJFS 佐賀空港
RJFO 大分空港
RJFM 宮崎空港
RJFK 鹿児島空港
ROIG 石垣島空港
RJTY 横田飛行場
ROTM 普天間飛行場
RODN 嘉手納飛行場